Time;durP1;ratioP1;P1;durP2;ratioP2;P2;SDS_P1;SDS_P2;PMS_P1;PMS_P2;Temp;Humidity;BMP_temperature;BMP_pressure;BME280_temperature;BME280_humidity;BME280_pressure;Samples;Min_cycle;Max_cycle;Signal;HPM_P1;HPM_P2
2022/05/22 00:01:39;;;;;;;6.90;3.50;;;;;;;;;;4974606;28;20828;-79
2022/05/22 00:04:05;;;;;;;5.78;2.90;;;;;;;;;;4972707;28;20090;-79
2022/05/22 00:06:31;;;;;;;9.43;2.95;;;;;;;;;;4970576;28;20058;-79
2022/05/22 00:08:57;;;;;;;8.63;2.78;;;;;;;;;;4978285;28;20046;-79
2022/05/22 00:11:26;;;;;;;12.55;3.08;;;;;;;;;;4992092;28;20073;-80
2022/05/22 00:13:52;;;;;;;8.68;3.00;;;;;;;;;;4991326;28;20578;-79
2022/05/22 00:16:36;;;;;;;6.88;2.70;;;;;;;;;;5023843;28;20064;-80
2022/05/22 00:19:05;;;;;;;7.00;2.60;;;;;;;;;;4975447;28;20503;-79
2022/05/22 00:21:31;;;;;;;7.97;2.95;;;;;;;;;;4971136;28;20130;-80
2022/05/22 00:24:00;;;;;;;8.43;2.95;;;;;;;;;;4971576;28;20054;-78
2022/05/22 00:26:26;;;;;;;9.52;2.80;;;;;;;;;;4971171;28;20112;-79
2022/05/22 00:28:52;;;;;;;9.80;3.00;;;;;;;;;;4972753;28;20493;-79
2022/05/22 00:31:21;;;;;;;7.70;3.00;;;;;;;;;;4970863;28;20046;-79
2022/05/22 00:33:47;;;;;;;6.28;3.10;;;;;;;;;;4971618;28;20039;-78
2022/05/22 00:36:14;;;;;;;12.25;3.03;;;;;;;;;;4971505;28;20062;-79
2022/05/22 00:38:40;;;;;;;6.07;2.80;;;;;;;;;;4971021;28;20105;-79
2022/05/22 00:41:09;;;;;;;5.72;2.80;;;;;;;;;;4972076;28;20054;-79
2022/05/22 00:43:40;;;;;;;7.50;2.70;;;;;;;;;;4972269;28;20536;-79
2022/05/22 00:46:08;;;;;;;6.75;2.80;;;;;;;;;;4972659;28;20086;-79
2022/05/22 00:48:35;;;;;;;7.10;2.92;;;;;;;;;;4989877;28;20074;-79
2022/05/22 00:51:27;;;;;;;6.22;2.72;;;;;;;;;;4983540;28;20113;-78
2022/05/22 00:53:56;;;;;;;4.88;2.33;;;;;;;;;;4982974;28;20055;-78
2022/05/22 00:56:24;;;;;;;7.40;2.85;;;;;;;;;;4975168;28;20407;-79
2022/05/22 00:58:51;;;;;;;6.28;2.58;;;;;;;;;;4976188;28;20049;-79
2022/05/22 01:01:17;;;;;;;9.10;3.15;;;;;;;;;;4988547;28;20501;-78
2022/05/22 01:03:43;;;;;;;8.10;2.78;;;;;;;;;;4993917;28;20054;-79
2022/05/22 01:06:20;;;;;;;6.97;2.50;;;;;;;;;;4994054;28;20046;-78
2022/05/22 01:08:49;;;;;;;6.50;2.65;;;;;;;;;;4982202;28;20513;-79
2022/05/22 01:11:26;;;;;;;7.57;2.65;;;;;;;;;;4974520;28;20046;-78
2022/05/22 01:13:55;;;;;;;7.93;2.47;;;;;;;;;;4975820;28;20054;-79
2022/05/22 01:16:21;;;;;;;6.40;2.45;;;;;;;;;;4973500;28;20078;-79
2022/05/22 01:18:54;;;;;;;9.73;3.30;;;;;;;;;;4975816;28;20117;-79
2022/05/22 01:21:25;;;;;;;7.07;2.95;;;;;;;;;;4975478;28;20399;-79
2022/05/22 01:23:52;;;;;;;7.78;2.95;;;;;;;;;;4973925;28;20047;-79
2022/05/22 01:26:18;;;;;;;6.18;2.60;;;;;;;;;;4975247;28;20065;-78
2022/05/22 01:28:44;;;;;;;6.15;2.40;;;;;;;;;;4990981;28;20411;-79
2022/05/22 01:31:11;;;;;;;6.05;2.60;;;;;;;;;;4977476;28;20042;-79
2022/05/22 01:33:37;;;;;;;8.70;3.08;;;;;;;;;;4975329;28;20043;-79
2022/05/22 01:36:05;;;;;;;8.13;2.65;;;;;;;;;;4974608;28;20146;-79
2022/05/22 01:38:31;;;;;;;7.82;3.08;;;;;;;;;;4975433;28;20062;-79
2022/05/22 01:40:58;;;;;;;6.78;2.50;;;;;;;;;;4974694;28;20062;-79
2022/05/22 01:43:23;;;;;;;9.18;2.75;;;;;;;;;;4974578;28;20046;-79
2022/05/22 01:45:50;;;;;;;7.95;2.80;;;;;;;;;;4975061;28;20047;-79
2022/05/22 01:48:16;;;;;;;7.25;2.80;;;;;;;;;;4975419;28;20182;-80
2022/05/22 01:50:44;;;;;;;6.32;2.75;;;;;;;;;;4972963;28;20046;-79
2022/05/22 01:53:10;;;;;;;6.65;2.58;;;;;;;;;;4975662;28;20039;-79
2022/05/22 01:55:36;;;;;;;5.80;2.60;;;;;;;;;;4983455;28;20482;-79
2022/05/22 01:58:06;;;;;;;7.10;2.65;;;;;;;;;;4993933;28;20042;-79
2022/05/22 02:00:32;;;;;;;6.90;2.60;;;;;;;;;;4990147;28;20057;-79
2022/05/22 02:02:58;;;;;;;4.95;2.63;;;;;;;;;;4973703;28;20133;-79
2022/05/22 02:05:24;;;;;;;6.00;2.60;;;;;;;;;;4972675;28;20109;-80
2022/05/22 02:10:35;;;;;;;4.60;2.75;;;;;;;;;;4982890;28;20050;-79
2022/05/22 02:13:01;;;;;;;6.93;3.10;;;;;;;;;;4993110;28;20100;-79
2022/05/22 02:15:28;;;;;;;7.50;2.90;;;;;;;;;;4978101;28;20058;-79
2022/05/22 02:17:55;;;;;;;7.40;3.45;;;;;;;;;;4974850;28;20035;-79
2022/05/22 02:20:21;;;;;;;3.60;3.10;;;;;;;;;;4972192;28;20042;-79
2022/05/22 02:22:49;;;;;;;4.65;3.47;;;;;;;;;;4974619;28;20047;-79
2022/05/22 02:25:19;;;;;;;5.18;3.40;;;;;;;;;;4973338;28;20093;-79
2022/05/22 02:27:46;;;;;;;4.05;3.38;;;;;;;;;;4973059;28;20068;-79
2022/05/22 02:30:14;;;;;;;4.40;3.65;;;;;;;;;;4973223;28;20170;-79
2022/05/22 02:32:40;;;;;;;5.90;4.20;;;;;;;;;;4972380;28;20055;-79
2022/05/22 02:35:08;;;;;;;5.47;3.75;;;;;;;;;;4974773;28;20042;-79
2022/05/22 02:37:41;;;;;;;7.93;4.10;;;;;;;;;;4974005;28;20100;-78
2022/05/22 02:40:07;;;;;;;5.10;3.60;;;;;;;;;;4973483;28;20102;-79
2022/05/22 02:42:35;;;;;;;5.57;4.05;;;;;;;;;;4974334;28;20173;-79
2022/05/22 02:45:01;;;;;;;6.88;4.35;;;;;;;;;;4973155;28;20502;-79
2022/05/22 02:47:27;;;;;;;6.57;4.20;;;;;;;;;;4973482;28;20406;-79
2022/05/22 02:49:53;;;;;;;5.50;4.20;;;;;;;;;;4974482;28;20039;-79
2022/05/22 02:52:25;;;;;;;7.50;4.55;;;;;;;;;;4989712;28;20050;-79
2022/05/22 02:54:51;;;;;;;7.60;4.70;;;;;;;;;;4980365;28;20181;-79
2022/05/22 02:57:21;;;;;;;6.47;4.38;;;;;;;;;;4972805;28;20063;-79
2022/05/22 02:59:50;;;;;;;10.55;4.90;;;;;;;;;;4976381;28;20133;-79
2022/05/22 03:02:16;;;;;;;5.93;4.80;;;;;;;;;;4990265;28;20046;-79
2022/05/22 03:04:43;;;;;;;6.00;4.78;;;;;;;;;;4992638;28;20042;-79
2022/05/22 03:07:10;;;;;;;6.30;5.05;;;;;;;;;;4992126;28;20080;-78
2022/05/22 03:09:37;;;;;;;9.30;4.90;;;;;;;;;;4984040;28;20053;-79
2022/05/22 03:12:07;;;;;;;5.50;4.47;;;;;;;;;;4993668;28;20042;-79
2022/05/22 03:14:33;;;;;;;10.68;5.10;;;;;;;;;;4990836;28;20073;-79
2022/05/22 03:16:59;;;;;;;7.00;4.60;;;;;;;;;;4978638;28;20054;-81
2022/05/22 03:19:25;;;;;;;7.35;4.47;;;;;;;;;;4973124;28;20043;-79
2022/05/22 03:21:51;;;;;;;10.85;5.15;;;;;;;;;;4972148;28;20161;-79
2022/05/22 03:24:17;;;;;;;9.27;4.45;;;;;;;;;;4976169;28;20034;-79
2022/05/22 03:26:43;;;;;;;6.75;4.70;;;;;;;;;;4992194;28;20061;-78
2022/05/22 03:29:11;;;;;;;7.45;4.63;;;;;;;;;;4992532;28;20069;-78
2022/05/22 03:31:37;;;;;;;6.35;4.90;;;;;;;;;;4992607;28;20061;-79
2022/05/22 03:34:04;;;;;;;9.88;5.18;;;;;;;;;;4986584;28;20073;-79
2022/05/22 03:36:30;;;;;;;5.53;4.40;;;;;;;;;;4971147;28;20043;-79
2022/05/22 03:38:56;;;;;;;7.13;4.50;;;;;;;;;;4980382;28;20046;-78
2022/05/22 03:41:22;;;;;;;8.30;5.32;;;;;;;;;;4990639;28;20390;-79
2022/05/22 03:43:48;;;;;;;10.57;5.00;;;;;;;;;;4990643;28;20054;-79
2022/05/22 03:46:17;;;;;;;6.97;4.72;;;;;;;;;;4992923;28;20459;-79
2022/05/22 03:48:43;;;;;;;10.55;4.88;;;;;;;;;;4976023;28;20050;-79
2022/05/22 03:51:09;;;;;;;10.65;4.72;;;;;;;;;;4972389;28;20038;-79
2022/05/22 03:53:35;;;;;;;8.70;5.00;;;;;;;;;;4974659;28;20483;-79
2022/05/22 03:56:08;;;;;;;7.68;4.78;;;;;;;;;;4990932;28;20050;-79
2022/05/22 03:58:34;;;;;;;5.82;4.40;;;;;;;;;;4990632;28;20129;-79
2022/05/22 04:01:00;;;;;;;6.95;4.75;;;;;;;;;;4980239;28;20514;-79
2022/05/22 04:03:26;;;;;;;7.30;4.70;;;;;;;;;;4992163;28;20053;-79
2022/05/22 04:05:52;;;;;;;7.97;5.05;;;;;;;;;;4989830;28;20054;-79
2022/05/22 04:08:19;;;;;;;7.07;4.80;;;;;;;;;;4976827;28;20051;-78
2022/05/22 04:10:45;;;;;;;6.95;4.90;;;;;;;;;;4972636;28;20562;-79
2022/05/22 04:13:11;;;;;;;6.70;4.57;;;;;;;;;;4972306;28;20197;-78
2022/05/22 04:15:37;;;;;;;7.60;4.47;;;;;;;;;;4972305;28;20132;-79
2022/05/22 04:18:06;;;;;;;9.90;5.10;;;;;;;;;;4970624;28;20391;-79
2022/05/22 04:20:32;;;;;;;7.18;5.22;;;;;;;;;;4972797;28;20051;-79
2022/05/22 04:25:56;;;;;;;6.05;4.45;;;;;;;;;;4989598;28;20462;-78
2022/05/22 04:28:23;;;;;;;7.45;4.72;;;;;;;;;;4992741;28;20046;-79
2022/05/22 04:30:50;;;;;;;6.25;4.28;;;;;;;;;;4978087;28;20047;-78
2022/05/22 04:33:19;;;;;;;7.53;4.70;;;;;;;;;;4976689;28;20424;-79
2022/05/22 04:35:46;;;;;;;6.68;4.65;;;;;;;;;;4977868;28;20105;-78
2022/05/22 04:38:12;;;;;;;7.55;4.35;;;;;;;;;;4979022;28;20046;-79
2022/05/22 04:40:39;;;;;;;6.63;4.18;;;;;;;;;;4978000;28;20391;-79
2022/05/22 04:43:09;;;;;;;7.95;4.60;;;;;;;;;;4977743;28;20055;-78
2022/05/22 04:45:41;;;;;;;9.00;4.30;;;;;;;;;;4978138;28;20130;-79
2022/05/22 04:48:07;;;;;;;5.80;4.15;;;;;;;;;;4980887;28;20078;-79
2022/05/22 04:50:33;;;;;;;7.40;4.40;;;;;;;;;;4995692;28;20038;-79
2022/05/22 04:53:00;;;;;;;7.35;4.32;;;;;;;;;;4976678;28;20511;-79
2022/05/22 04:55:26;;;;;;;7.88;4.15;;;;;;;;;;4978405;28;20050;-79
2022/05/22 04:57:52;;;;;;;5.80;3.92;;;;;;;;;;4978687;28;20053;-79
2022/05/22 05:00:18;;;;;;;6.78;4.32;;;;;;;;;;4978244;28;20857;-79
2022/05/22 05:02:44;;;;;;;9.20;4.40;;;;;;;;;;4978676;28;20046;-79
2022/05/22 05:05:10;;;;;;;6.40;4.05;;;;;;;;;;4977626;28;20054;-78
2022/05/22 05:07:40;;;;;;;5.95;3.88;;;;;;;;;;4977025;28;20047;-78
2022/05/22 05:10:07;;;;;;;6.35;3.95;;;;;;;;;;4981677;28;20089;-79
2022/05/22 05:12:36;;;;;;;5.88;4.07;;;;;;;;;;4978735;28;20086;-78
2022/05/22 05:15:02;;;;;;;6.80;3.85;;;;;;;;;;4976656;28;20050;-79
2022/05/22 05:17:31;;;;;;;8.23;4.32;;;;;;;;;;4978497;28;20053;-79
2022/05/22 05:19:57;;;;;;;7.03;3.72;;;;;;;;;;4977086;28;20090;-79
2022/05/22 05:22:23;;;;;;;6.25;3.92;;;;;;;;;;4977661;28;20088;-79
2022/05/22 05:24:49;;;;;;;7.32;3.95;;;;;;;;;;4977448;28;20518;-79
2022/05/22 05:27:15;;;;;;;8.07;4.18;;;;;;;;;;4977180;28;20066;-79
2022/05/22 05:29:41;;;;;;;8.43;4.10;;;;;;;;;;4977773;28;20047;-79
2022/05/22 05:32:07;;;;;;;7.10;4.20;;;;;;;;;;4977727;28;20047;-78
2022/05/22 05:34:34;;;;;;;5.47;3.70;;;;;;;;;;4977279;28;20554;-78
2022/05/22 05:37:00;;;;;;;6.75;3.90;;;;;;;;;;4977983;28;20050;-79
2022/05/22 05:39:27;;;;;;;7.85;4.18;;;;;;;;;;4994510;28;20121;-79
2022/05/22 05:41:56;;;;;;;8.00;4.30;;;;;;;;;;4998302;28;20046;-79
2022/05/22 05:44:32;;;;;;;7.38;4.15;;;;;;;;;;4992040;28;20054;-79
2022/05/22 05:46:58;;;;;;;7.07;4.13;;;;;;;;;;4976050;28;20384;-79
2022/05/22 05:49:26;;;;;;;7.60;3.70;;;;;;;;;;4973102;28;20047;-79
2022/05/22 05:51:52;;;;;;;4.47;3.55;;;;;;;;;;4975159;28;20170;-79
2022/05/22 05:54:18;;;;;;;6.38;3.67;;;;;;;;;;4975823;28;20130;-79
2022/05/22 05:56:44;;;;;;;8.50;3.42;;;;;;;;;;4974816;28;20050;-79
2022/05/22 05:59:10;;;;;;;6.18;3.40;;;;;;;;;;4974175;28;20038;-79
2022/05/22 06:01:37;;;;;;;6.97;3.83;;;;;;;;;;4973228;28;20051;-79
2022/05/22 06:04:03;;;;;;;7.05;3.42;;;;;;;;;;4981723;28;20184;-79
2022/05/22 06:06:29;;;;;;;6.18;3.40;;;;;;;;;;4994383;28;20491;-79
2022/05/22 06:08:55;;;;;;;6.30;3.30;;;;;;;;;;4976848;28;20093;-79
2022/05/22 06:11:21;;;;;;;5.15;2.75;;;;;;;;;;4973012;28;20047;-79
2022/05/22 06:13:47;;;;;;;8.40;3.47;;;;;;;;;;4973889;28;20046;-79
2022/05/22 06:16:13;;;;;;;5.93;3.13;;;;;;;;;;4990171;28;20065;-79
2022/05/22 06:18:40;;;;;;;8.15;3.15;;;;;;;;;;4993519;28;20050;-79
2022/05/22 06:21:10;;;;;;;5.72;3.17;;;;;;;;;;4992479;28;20050;-79
2022/05/22 06:23:38;;;;;;;6.63;2.95;;;;;;;;;;4973497;28;20533;-79
2022/05/22 06:26:04;;;;;;;7.32;3.10;;;;;;;;;;4973685;28;20063;-79
2022/05/22 06:28:30;;;;;;;6.22;2.83;;;;;;;;;;4973763;28;20057;-79
2022/05/22 06:30:56;;;;;;;6.85;3.20;;;;;;;;;;4973571;28;20153;-79
2022/05/22 06:33:25;;;;;;;5.75;4.10;;;;;;;;;;4973758;28;20501;-79
2022/05/22 06:35:51;;;;;;;8.98;5.53;;;;;;;;;;4973565;28;20126;-79
2022/05/22 06:41:13;;;;;;;9.52;3.08;;;;;;;;;;4941975;28;20061;-79
2022/05/22 06:43:39;;;;;;;8.13;3.40;;;;;;;;;;4993387;28;20419;-79
2022/05/22 06:46:05;;;;;;;8.23;3.00;;;;;;;;;;4992321;28;20152;-80
2022/05/22 06:48:32;;;;;;;8.02;3.90;;;;;;;;;;4974202;28;20094;-79
2022/05/22 06:50:58;;;;;;;8.32;3.58;;;;;;;;;;4972132;28;20243;-79
2022/05/22 06:53:24;;;;;;;8.57;3.60;;;;;;;;;;4975304;28;20499;-80
2022/05/22 06:55:50;;;;;;;9.38;3.17;;;;;;;;;;5005089;28;20113;-79
2022/05/22 06:58:16;;;;;;;6.85;3.13;;;;;;;;;;4973194;28;20039;-79
2022/05/22 07:00:42;;;;;;;7.07;3.00;;;;;;;;;;4982788;28;20133;-79
2022/05/22 07:03:08;;;;;;;8.13;3.00;;;;;;;;;;4992383;28;20402;-79
2022/05/22 07:05:34;;;;;;;6.97;2.88;;;;;;;;;;4993424;28;20109;-79
2022/05/22 07:08:00;;;;;;;7.38;2.85;;;;;;;;;;4990374;28;20491;-79
2022/05/22 07:13:14;;;;;;;8.23;3.63;;;;;;;;;;4973848;28;20447;-79
2022/05/22 07:15:40;;;;;;;7.75;3.05;;;;;;;;;;4980060;28;20415;-79
2022/05/22 07:18:06;;;;;;;6.57;2.70;;;;;;;;;;4993477;28;20089;-79
2022/05/22 07:20:32;;;;;;;7.22;2.63;;;;;;;;;;4993203;28;20052;-79
2022/05/22 07:22:58;;;;;;;7.97;2.90;;;;;;;;;;4992431;28;20129;-79
2022/05/22 07:25:26;;;;;;;5.07;2.42;;;;;;;;;;4976308;28;20050;-78
2022/05/22 07:27:52;;;;;;;7.88;2.70;;;;;;;;;;4989113;28;20093;-79
2022/05/22 07:30:18;;;;;;;5.00;2.20;;;;;;;;;;4974128;28;20051;-80
2022/05/22 07:32:44;;;;;;;5.70;2.55;;;;;;;;;;4973487;28;20049;-80
2022/05/22 07:35:11;;;;;;;7.25;2.38;;;;;;;;;;4973204;28;20129;-78
2022/05/22 07:37:37;;;;;;;6.00;2.70;;;;;;;;;;4972732;28;20093;-79
2022/05/22 07:40:04;;;;;;;5.47;2.35;;;;;;;;;;4973627;28;20209;-79
2022/05/22 07:42:30;;;;;;;5.07;2.20;;;;;;;;;;4971050;28;20120;-78
2022/05/22 07:44:56;;;;;;;4.45;2.20;;;;;;;;;;4971753;28;20503;-79
2022/05/22 07:47:22;;;;;;;5.80;2.50;;;;;;;;;;4971682;28;20066;-80
2022/05/22 07:52:40;;;;;;;4.75;2.55;;;;;;;;;;5004103;28;20051;-80
2022/05/22 07:55:14;;;;;;;5.95;2.60;;;;;;;;;;4972850;28;20055;-80
2022/05/22 07:57:40;;;;;;;7.00;2.85;;;;;;;;;;4970542;28;20046;-80
2022/05/22 08:00:07;;;;;;;9.88;3.00;;;;;;;;;;4971789;28;20053;-80
2022/05/22 08:02:33;;;;;;;5.47;2.90;;;;;;;;;;4973026;28;20047;-80
2022/05/22 08:04:59;;;;;;;7.03;2.90;;;;;;;;;;4971918;28;20054;-79
2022/05/22 08:07:25;;;;;;;5.15;2.70;;;;;;;;;;4971125;28;20364;-80
2022/05/22 08:09:51;;;;;;;6.95;2.65;;;;;;;;;;4972611;28;20098;-79
2022/05/22 08:12:17;;;;;;;9.73;4.07;;;;;;;;;;4971220;28;20074;-79
2022/05/22 08:14:44;;;;;;;11.50;5.43;;;;;;;;;;4990818;28;20057;-80
2022/05/22 08:17:11;;;;;;;6.15;2.92;;;;;;;;;;4989040;28;20042;-80
2022/05/22 08:19:37;;;;;;;6.65;2.75;;;;;;;;;;4972019;28;20082;-79
2022/05/22 08:22:03;;;;;;;4.28;2.53;;;;;;;;;;4972873;28;20118;-80
2022/05/22 08:24:29;;;;;;;7.68;3.10;;;;;;;;;;4971641;28;20051;-79
2022/05/22 08:26:58;;;;;;;6.63;3.03;;;;;;;;;;4970961;28;20051;-79
2022/05/22 08:29:24;;;;;;;6.53;2.80;;;;;;;;;;4972881;28;20042;-80
2022/05/22 08:31:50;;;;;;;7.07;2.88;;;;;;;;;;4971662;28;20054;-80
2022/05/22 08:34:16;;;;;;;8.25;2.80;;;;;;;;;;4973081;28;20043;-79
2022/05/22 08:36:45;;;;;;;5.28;3.20;;;;;;;;;;4972382;28;20086;-80
2022/05/22 08:39:11;;;;;;;5.82;2.63;;;;;;;;;;5002974;28;20142;-80
2022/05/22 08:41:48;;;;;;;6.28;2.97;;;;;;;;;;4972521;28;20122;-79
2022/05/22 08:44:26;;;;;;;4.65;3.10;;;;;;;;;;4971123;28;20050;-79
2022/05/22 08:46:57;;;;;;;6.80;3.28;;;;;;;;;;4970249;28;20055;-79
2022/05/22 08:49:23;;;;;;;7.50;3.17;;;;;;;;;;4970496;28;20051;-79
2022/05/22 08:51:57;;;;;;;7.25;3.08;;;;;;;;;;4971211;28;20114;-79
2022/05/22 08:54:35;;;;;;;6.75;2.78;;;;;;;;;;4971445;28;20038;-79
2022/05/22 08:59:53;;;;;;;5.15;2.92;;;;;;;;;;4974096;28;20050;-80
2022/05/22 09:02:49;;;;;;;5.18;2.72;;;;;;;;;;4990431;28;20046;-79
2022/05/22 09:05:21;;;;;;;4.47;2.70;;;;;;;;;;4978874;28;20122;-80
2022/05/22 09:07:58;;;;;;;5.60;3.00;;;;;;;;;;4971019;28;20051;-80
2022/05/22 09:10:43;;;;;;;6.22;2.60;;;;;;;;;;4971993;28;20047;-79
2022/05/22 09:13:12;;;;;;;8.50;3.10;;;;;;;;;;4989224;28;20054;-79
2022/05/22 09:15:44;;;;;;;7.78;3.05;;;;;;;;;;4984703;28;20050;-79
2022/05/22 09:18:30;;;;;;;14.35;8.50;;;;;;;;;;4972072;28;20046;-79
2022/05/22 09:20:56;;;;;;;6.93;3.10;;;;;;;;;;4971106;28;20077;-79
2022/05/22 09:23:46;;;;;;;4.85;2.63;;;;;;;;;;4975717;28;20399;-79
2022/05/22 09:26:19;;;;;;;6.65;2.97;;;;;;;;;;4983757;28;20058;-79
2022/05/22 09:28:51;;;;;;;7.50;3.55;;;;;;;;;;4992748;28;20621;-79
2022/05/22 09:31:17;;;;;;;5.50;3.00;;;;;;;;;;4995303;28;20050;-79
2022/05/22 09:33:53;;;;;;;4.22;2.75;;;;;;;;;;4976280;28;20291;-79
2022/05/22 09:36:24;;;;;;;6.68;3.35;;;;;;;;;;4973730;28;20165;-79
2022/05/22 09:38:56;;;;;;;8.00;3.65;;;;;;;;;;4974949;28;20570;-79
2022/05/22 09:41:31;;;;;;;5.85;3.50;;;;;;;;;;4974395;28;20043;-79
2022/05/22 09:44:06;;;;;;;5.05;3.40;;;;;;;;;;4976022;28;20038;-79
2022/05/22 09:46:44;;;;;;;8.35;3.83;;;;;;;;;;4975285;28;20062;-79
2022/05/22 09:49:22;;;;;;;8.02;3.97;;;;;;;;;;4972668;28;20054;-79
2022/05/22 09:51:48;;;;;;;8.80;3.90;;;;;;;;;;4974146;28;20043;-79
2022/05/22 09:54:23;;;;;;;5.85;3.90;;;;;;;;;;4991149;28;20073;-79
2022/05/22 09:56:53;;;;;;;8.93;4.13;;;;;;;;;;4994066;28;20510;-80
2022/05/22 09:59:37;;;;;;;8.02;4.15;;;;;;;;;;4987074;28;20042;-80
2022/05/22 10:02:10;;;;;;;7.95;4.20;;;;;;;;;;4975297;28;20421;-80
2022/05/22 10:04:46;;;;;;;9.63;4.20;;;;;;;;;;4972774;28;20051;-80
2022/05/22 10:07:21;;;;;;;5.93;3.55;;;;;;;;;;4973958;28;20517;-79
2022/05/22 10:09:47;;;;;;;6.00;3.85;;;;;;;;;;4973135;28;20043;-79
2022/05/22 10:12:16;;;;;;;6.97;3.22;;;;;;;;;;4973784;28;20054;-80
2022/05/22 10:14:52;;;;;;;6.53;3.55;;;;;;;;;;4989671;28;20056;-79
2022/05/22 10:17:39;;;;;;;7.78;3.88;;;;;;;;;;4987884;28;20051;-80
2022/05/22 10:20:14;;;;;;;6.55;3.47;;;;;;;;;;4973992;28;20054;-79
2022/05/22 10:22:49;;;;;;;6.03;3.65;;;;;;;;;;4974185;28;20084;-79
2022/05/22 10:25:34;;;;;;;10.27;3.65;;;;;;;;;;4973966;28;20200;-79
2022/05/22 10:28:03;;;;;;;7.35;3.40;;;;;;;;;;4983228;28;20137;-79
2022/05/22 10:30:35;;;;;;;4.80;3.45;;;;;;;;;;4980564;28;20122;-79
2022/05/22 10:33:10;;;;;;;6.28;3.15;;;;;;;;;;4974542;28;20046;-79
2022/05/22 10:35:39;;;;;;;7.78;3.20;;;;;;;;;;4972640;28;20141;-79
2022/05/22 10:38:05;;;;;;;6.95;3.20;;;;;;;;;;4973676;28;20431;-79
2022/05/22 10:42:45;;;;;;;7.60;3.33;;;;;;;;;;4974077;28;20109;-79
2022/05/22 10:43:17;;;;;;;8.95;3.50;;;;;;;;;;4973993;28;20053;-79
2022/05/22 10:45:43;;;;;;;5.57;3.10;;;;;;;;;;4972133;28;20046;-79
2022/05/22 10:48:19;;;;;;;5.45;2.88;;;;;;;;;;4973076;28;20105;-79
2022/05/22 10:50:51;;;;;;;8.68;3.13;;;;;;;;;;4974539;28;20047;-80
2022/05/22 10:53:25;;;;;;;6.13;2.83;;;;;;;;;;4973293;28;20476;-79
2022/05/22 10:55:52;;;;;;;6.60;2.72;;;;;;;;;;4973873;28;20138;-80
2022/05/22 10:58:29;;;;;;;6.65;2.83;;;;;;;;;;4974308;28;20093;-80
2022/05/22 11:00:57;;;;;;;6.47;2.50;;;;;;;;;;4971382;28;20471;-80
2022/05/22 11:03:27;;;;;;;4.47;2.33;;;;;;;;;;4973674;28;20452;-79
2022/05/22 11:05:54;;;;;;;5.72;2.50;;;;;;;;;;4972845;28;20086;-79
2022/05/22 11:08:28;;;;;;;5.43;2.40;;;;;;;;;;4973808;28;20487;-79
2022/05/22 11:10:54;;;;;;;4.90;2.17;;;;;;;;;;4973867;28;20058;-79
2022/05/22 11:13:23;;;;;;;4.78;2.00;;;;;;;;;;4977681;28;20054;-80
2022/05/22 11:15:49;;;;;;;3.70;2.20;;;;;;;;;;4977839;28;20047;-79
2022/05/22 11:18:26;;;;;;;2.85;1.80;;;;;;;;;;4991979;28;20529;-79
2022/05/22 11:20:58;;;;;;;5.65;1.90;;;;;;;;;;4975231;28;20054;-79
2022/05/22 11:23:32;;;;;;;2.57;1.70;;;;;;;;;;4972165;28;20475;-80
2022/05/22 11:25:58;;;;;;;3.72;1.70;;;;;;;;;;4990557;28;20058;-79
2022/05/22 11:28:31;;;;;;;4.00;2.17;;;;;;;;;;4982908;28;20177;-80
2022/05/22 11:30:57;;;;;;;4.05;1.75;;;;;;;;;;4972018;28;20054;-79
2022/05/22 11:33:23;;;;;;;3.67;1.83;;;;;;;;;;4973200;28;20976;-80
2022/05/22 11:36:15;;;;;;;5.97;2.00;;;;;;;;;;4971469;28;20046;-80
2022/05/22 11:38:45;;;;;;;2.83;1.77;;;;;;;;;;4966230;28;20046;-80
2022/05/22 11:41:20;;;;;;;3.72;1.77;;;;;;;;;;4990878;28;20043;-79
2022/05/22 11:43:52;;;;;;;1.98;1.77;;;;;;;;;;4985745;28;20055;-80
2022/05/22 11:46:46;;;;;;;2.95;1.65;;;;;;;;;;4971752;28;20527;-79
2022/05/22 11:49:31;;;;;;;2.22;1.75;;;;;;;;;;4972749;28;20403;-80
2022/05/22 11:52:10;;;;;;;4.93;1.80;;;;;;;;;;4973167;28;20050;-80
2022/05/22 11:54:57;;;;;;;3.33;1.70;;;;;;;;;;4972825;28;20141;-80
2022/05/22 11:57:27;;;;;;;3.92;1.77;;;;;;;;;;4978190;28;20049;-80
2022/05/22 11:59:59;;;;;;;3.25;1.70;;;;;;;;;;4992416;28;20038;-80
2022/05/22 12:02:38;;;;;;;3.42;1.83;;;;;;;;;;4977615;28;20093;-80
2022/05/22 12:05:22;;;;;;;4.35;1.75;;;;;;;;;;4972654;28;20498;-79
2022/05/22 12:07:54;;;;;;;3.20;1.63;;;;;;;;;;4972737;28;20152;-80
2022/05/22 12:10:47;;;;;;;3.75;1.80;;;;;;;;;;4971631;28;20054;-80
2022/05/22 12:13:22;;;;;;;4.63;1.80;;;;;;;;;;4972629;28;20058;-80
2022/05/22 12:15:48;;;;;;;3.65;1.75;;;;;;;;;;4973046;28;20054;-80
2022/05/22 12:18:29;;;;;;;3.13;1.60;;;;;;;;;;4979135;28;20042;-80
2022/05/22 12:21:25;;;;;;;5.68;1.50;;;;;;;;;;4982136;28;20054;-80
2022/05/22 12:24:01;;;;;;;3.72;1.70;;;;;;;;;;4970927;28;20050;-80
2022/05/22 12:26:30;;;;;;;3.65;1.70;;;;;;;;;;4970685;28;20137;-79
2022/05/22 12:29:09;;;;;;;5.18;1.60;;;;;;;;;;4979761;28;20121;-80
2022/05/22 12:31:44;;;;;;;3.65;1.60;;;;;;;;;;4989616;28;20093;-80
2022/05/22 12:34:15;;;;;;;5.03;1.80;;;;;;;;;;4990916;28;20050;-80
2022/05/22 12:36:45;;;;;;;3.75;1.90;;;;;;;;;;4990777;28;20050;-79
2022/05/22 12:39:12;;;;;;;3.60;1.70;;;;;;;;;;4976873;28;20082;-81
2022/05/22 12:41:44;;;;;;;3.85;1.73;;;;;;;;;;4971138;28;20085;-81
2022/05/22 12:44:11;;;;;;;2.65;1.65;;;;;;;;;;4970897;28;20054;-81
2022/05/22 12:46:37;;;;;;;4.38;1.88;;;;;;;;;;4972624;28;20522;-81
2022/05/22 12:49:23;;;;;;;3.00;1.70;;;;;;;;;;4973015;28;20080;-81
2022/05/22 12:52:19;;;;;;;2.42;1.70;;;;;;;;;;4981315;28;20038;-81
2022/05/22 12:54:55;;;;;;;2.63;1.83;;;;;;;;;;4991471;28;20137;-81
2022/05/22 12:57:22;;;;;;;4.13;1.77;;;;;;;;;;4994667;28;20353;-81
2022/05/22 12:59:52;;;;;;;3.17;1.88;;;;;;;;;;4976495;28;20364;-82
2022/05/22 13:02:41;;;;;;;3.22;1.45;;;;;;;;;;4976823;28;20043;-81
2022/05/22 13:05:16;;;;;;;3.08;1.60;;;;;;;;;;4976305;28;20046;-81
2022/05/22 13:07:42;;;;;;;4.28;1.65;;;;;;;;;;4993137;28;20050;-80
2022/05/22 13:10:24;;;;;;;4.03;1.60;;;;;;;;;;4994452;28;20056;-81
2022/05/22 13:12:56;;;;;;;4.03;1.58;;;;;;;;;;4990859;28;21006;-81
2022/05/22 13:15:24;;;;;;;3.85;1.58;;;;;;;;;;4977150;28;20089;-81
2022/05/22 13:18:03;;;;;;;6.25;1.85;;;;;;;;;;4976091;28;20051;-79
2022/05/22 13:20:35;;;;;;;4.28;1.80;;;;;;;;;;4981839;28;20039;-80
2022/05/22 13:23:06;;;;;;;2.78;1.70;;;;;;;;;;4994525;28;20052;-81
2022/05/22 13:25:44;;;;;;;4.90;1.70;;;;;;;;;;4995347;28;20150;-79
2022/05/22 13:28:22;;;;;;;3.40;1.60;;;;;;;;;;4975306;28;20403;-80
2022/05/22 13:30:54;;;;;;;4.22;1.90;;;;;;;;;;4986277;28;20050;-79
2022/05/22 13:33:21;;;;;;;2.22;1.63;;;;;;;;;;4994960;28;20057;-80
2022/05/22 13:36:13;;;;;;;3.10;1.55;;;;;;;;;;4994266;28;20121;-80
2022/05/22 13:38:40;;;;;;;3.47;1.55;;;;;;;;;;4983178;28;20062;-81
2022/05/22 13:41:19;;;;;;;3.95;1.88;;;;;;;;;;4975003;28;20053;-80
2022/05/22 13:43:45;;;;;;;4.00;1.73;;;;;;;;;;4976126;28;20047;-80
2022/05/22 13:46:34;;;;;;;3.38;1.80;;;;;;;;;;4975314;28;20098;-80
2022/05/22 13:49:22;;;;;;;3.28;1.77;;;;;;;;;;4974761;28;20043;-80
2022/05/22 13:54:59;;;;;;;3.63;1.75;;;;;;;;;;5005957;28;20046;-79
2022/05/22 13:57:28;;;;;;;4.72;2.00;;;;;;;;;;4975108;28;20047;-80
2022/05/22 13:59:56;;;;;;;2.35;1.83;;;;;;;;;;4974278;28;20047;-80
2022/05/22 14:02:25;;;;;;;4.32;1.92;;;;;;;;;;4972944;28;20057;-80
2022/05/22 14:04:52;;;;;;;3.65;1.73;;;;;;;;;;4973130;28;20133;-79
2022/05/22 14:07:21;;;;;;;3.05;1.90;;;;;;;;;;4975172;28;20386;-79
2022/05/22 14:09:50;;;;;;;4.35;2.00;;;;;;;;;;4974612;28;20101;-80
2022/05/22 14:12:16;;;;;;;6.63;2.35;;;;;;;;;;4975235;28;20058;-79
2022/05/22 14:14:42;;;;;;;2.60;1.55;;;;;;;;;;4975381;28;20118;-79
2022/05/22 14:17:09;;;;;;;5.45;2.00;;;;;;;;;;5004834;28;20466;-80
2022/05/22 14:19:42;;;;;;;2.88;1.70;;;;;;;;;;4977656;28;20153;-80
2022/05/22 14:22:08;;;;;;;4.78;2.08;;;;;;;;;;4993042;28;20056;-80
2022/05/22 14:24:51;;;;;;;3.58;1.80;;;;;;;;;;4978936;28;20042;-80
2022/05/22 14:27:28;;;;;;;3.20;2.05;;;;;;;;;;4976045;28;20058;-80
2022/05/22 14:30:15;;;;;;;2.80;1.85;;;;;;;;;;4992230;28;20042;-80
2022/05/22 14:32:42;;;;;;;4.15;1.90;;;;;;;;;;4991661;28;20063;-80
2022/05/22 14:35:13;;;;;;;4.03;1.90;;;;;;;;;;4973471;28;20039;-79
2022/05/22 14:37:43;;;;;;;4.22;1.70;;;;;;;;;;4996825;28;20054;-80
2022/05/22 14:40:29;;;;;;;3.55;1.77;;;;;;;;;;5012235;28;20054;-80
2022/05/22 14:42:57;;;;;;;3.33;1.80;;;;;;;;;;5004962;28;20506;-80
2022/05/22 14:45:34;;;;;;;4.43;2.03;;;;;;;;;;4988706;28;20124;-81
2022/05/22 14:48:01;;;;;;;2.95;1.80;;;;;;;;;;5005854;28;20050;-81
2022/05/22 14:50:28;;;;;;;3.10;1.60;;;;;;;;;;4991277;28;20154;-82
2022/05/22 14:52:57;;;;;;;3.00;1.90;;;;;;;;;;4987498;28;20515;-81
2022/05/22 14:55:28;;;;;;;2.88;1.67;;;;;;;;;;4995587;28;20037;-81
2022/05/22 14:57:57;;;;;;;4.28;2.20;;;;;;;;;;4994829;28;20057;-80
2022/05/22 15:00:29;;;;;;;3.85;2.30;;;;;;;;;;4987165;28;20144;-80
2022/05/22 15:02:55;;;;;;;;;;;;;;;;;;4987646;28;20065;-82
2022/05/22 15:05:24;;;;;;;3.70;1.73;;;;;;;;;;4991737;28;19926;-78
2022/05/22 15:07:57;;;;;;;3.97;1.85;;;;;;;;;;4986263;28;20093;-79
2022/05/22 15:10:33;;;;;;;4.00;1.80;;;;;;;;;;4977717;28;20427;-80
2022/05/22 15:13:03;;;;;;;4.45;1.88;;;;;;;;;;4990987;28;20050;-80
2022/05/22 15:15:36;;;;;;;3.90;1.90;;;;;;;;;;4979518;28;20042;-79
2022/05/22 15:18:14;;;;;;;2.40;1.90;;;;;;;;;;5009635;28;20045;-82
2022/05/22 15:20:40;;;;;;;3.63;1.58;;;;;;;;;;4979083;28;20148;-78